Westover, New York
Current Conditions -  °F | °C
As of 4:53 PM on Sunday 23 Nov 2014 (Local Time) from KBGM Reporting Station
Clear Clear  
Wind Chill: 41°   Ceiling: Unl
Heat Index: 45°   Visibility: 10mi
Dew Point: 31°   Wind: 8mph
Humidity: 58%   Direction: 150°SSE
Pressure: 30.01"   Gusts: NA
Location:  42.1768°N, 76.0035°W
Report Text: KBGM 232153Z 15007KT 10SM CLR 07/M01 A3001 RMK AO2 SLP171 T00721006
Loading
Personal Weather Stations






























Interactive Weather Map New forecast layout! Learn more

10-Day Weather Forecast

Advertisements
Track Severe Weather on mobile